sensor_id;sensor_type;location;lat;lon;timestamp;pressure;altitude;pressure_sealevel;temperature;humidity
8653;BME280;4364;52.426;9.424;2023-02-16T00:01:52;101886.75;;;2.98;87.30
8653;BME280;4364;52.426;9.424;2023-02-16T00:04:27;101883.81;;;2.93;87.86
8653;BME280;4364;52.426;9.424;2023-02-16T00:06:55;101882.16;;;2.92;87.67
8653;BME280;4364;52.426;9.424;2023-02-16T00:09:22;101886.06;;;2.89;87.92
8653;BME280;4364;52.426;9.424;2023-02-16T00:11:51;101879.63;;;2.84;87.88
8653;BME280;4364;52.426;9.424;2023-02-16T00:14:37;101871.31;;;2.78;88.01
8653;BME280;4364;52.426;9.424;2023-02-16T00:17:05;101879.13;;;2.73;88.04
8653;BME280;4364;52.426;9.424;2023-02-16T00:19:36;101877.63;;;2.64;88.53
8653;BME280;4364;52.426;9.424;2023-02-16T00:22:03;101883.41;;;2.61;88.40
8653;BME280;4364;52.426;9.424;2023-02-16T00:24:30;101875.78;;;2.65;88.79
8653;BME280;4364;52.426;9.424;2023-02-16T00:26:58;101876.59;;;2.65;88.46
8653;BME280;4364;52.426;9.424;2023-02-16T00:29:30;101875.56;;;2.66;88.69
8653;BME280;4364;52.426;9.424;2023-02-16T00:32:00;101871.38;;;2.57;87.95
8653;BME280;4364;52.426;9.424;2023-02-16T00:34:33;101866.13;;;2.49;88.41
8653;BME280;4364;52.426;9.424;2023-02-16T00:37:01;101867.94;;;2.41;89.05
8653;BME280;4364;52.426;9.424;2023-02-16T00:39:29;101864.31;;;2.49;89.40
8653;BME280;4364;52.426;9.424;2023-02-16T00:41:59;101874.06;;;2.57;89.79
8653;BME280;4364;52.426;9.424;2023-02-16T00:44:31;101873.09;;;2.65;89.73
8653;BME280;4364;52.426;9.424;2023-02-16T00:47:29;101870.00;;;2.68;89.17
8653;BME280;4364;52.426;9.424;2023-02-16T00:49:56;101862.59;;;2.70;89.32
8653;BME280;4364;52.426;9.424;2023-02-16T00:52:33;101869.28;;;2.87;88.84
8653;BME280;4364;52.426;9.424;2023-02-16T00:55:04;101861.28;;;2.94;88.38
8653;BME280;4364;52.426;9.424;2023-02-16T00:57:34;101856.31;;;2.91;88.51
8653;BME280;4364;52.426;9.424;2023-02-16T01:00:18;101849.50;;;2.95;88.08
8653;BME280;4364;52.426;9.424;2023-02-16T01:02:48;101849.75;;;3.00;87.90
8653;BME280;4364;52.426;9.424;2023-02-16T01:05:17;101842.56;;;3.14;87.73
8653;BME280;4364;52.426;9.424;2023-02-16T01:07:44;101845.69;;;3.11;87.36
8653;BME280;4364;52.426;9.424;2023-02-16T01:10:32;101840.50;;;3.09;87.45
8653;BME280;4364;52.426;9.424;2023-02-16T01:13:17;101840.09;;;3.06;87.23
8653;BME280;4364;52.426;9.424;2023-02-16T01:15:44;101854.56;;;3.11;87.67
8653;BME280;4364;52.426;9.424;2023-02-16T01:18:16;101846.09;;;3.08;87.66
8653;BME280;4364;52.426;9.424;2023-02-16T01:20:44;101850.84;;;3.06;87.24
8653;BME280;4364;52.426;9.424;2023-02-16T01:23:11;101834.44;;;3.01;87.78
8653;BME280;4364;52.426;9.424;2023-02-16T01:25:40;101846.28;;;3.06;87.48
8653;BME280;4364;52.426;9.424;2023-02-16T01:28:22;101842.06;;;2.97;87.37
8653;BME280;4364;52.426;9.424;2023-02-16T01:30:50;101846.63;;;2.96;87.82
8653;BME280;4364;52.426;9.424;2023-02-16T01:33:17;101845.78;;;2.89;87.98
8653;BME280;4364;52.426;9.424;2023-02-16T01:35:44;101836.00;;;2.82;88.06
8653;BME280;4364;52.426;9.424;2023-02-16T01:38:19;101837.88;;;2.81;88.38
8653;BME280;4364;52.426;9.424;2023-02-16T01:43:44;101838.72;;;2.88;88.45
8653;BME280;4364;52.426;9.424;2023-02-16T01:46:28;101839.16;;;2.92;88.43
8653;BME280;4364;52.426;9.424;2023-02-16T01:48:58;101827.78;;;2.90;88.66
8653;BME280;4364;52.426;9.424;2023-02-16T01:51:34;101822.19;;;2.85;88.33
8653;BME280;4364;52.426;9.424;2023-02-16T01:54:13;101829.88;;;2.94;88.59
8653;BME280;4364;52.426;9.424;2023-02-16T01:56:49;101829.81;;;2.81;88.49
8653;BME280;4364;52.426;9.424;2023-02-16T01:59:36;101821.34;;;2.84;88.50
8653;BME280;4364;52.426;9.424;2023-02-16T02:02:16;101824.19;;;2.76;88.62
8653;BME280;4364;52.426;9.424;2023-02-16T02:04:51;101834.72;;;2.71;88.74
8653;BME280;4364;52.426;9.424;2023-02-16T02:08:00;101830.44;;;2.55;88.67
8653;BME280;4364;52.426;9.424;2023-02-16T02:13:16;101826.25;;;2.17;88.96
8653;BME280;4364;52.426;9.424;2023-02-16T02:15:45;101829.69;;;2.11;89.31
8653;BME280;4364;52.426;9.424;2023-02-16T02:18:13;101831.94;;;2.08;89.80
8653;BME280;4364;52.426;9.424;2023-02-16T02:26:49;101817.94;;;2.12;91.08
8653;BME280;4364;52.426;9.424;2023-02-16T02:29:28;101815.41;;;2.04;90.95
8653;BME280;4364;52.426;9.424;2023-02-16T02:32:17;101810.53;;;1.93;91.34
8653;BME280;4364;52.426;9.424;2023-02-16T02:43:16;101806.06;;;1.78;91.36
8653;BME280;4364;52.426;9.424;2023-02-16T02:45:50;101815.72;;;1.73;91.94
8653;BME280;4364;52.426;9.424;2023-02-16T02:48:19;101806.78;;;1.65;91.74
8653;BME280;4364;52.426;9.424;2023-02-16T02:50:51;101815.00;;;1.64;91.72
8653;BME280;4364;52.426;9.424;2023-02-16T02:53:41;101812.63;;;1.54;92.43
8653;BME280;4364;52.426;9.424;2023-02-16T02:56:11;101812.81;;;1.53;92.39
8653;BME280;4364;52.426;9.424;2023-02-16T02:59:03;101813.84;;;1.52;92.46
8653;BME280;4364;52.426;9.424;2023-02-16T03:01:52;101816.78;;;1.57;93.51
8653;BME280;4364;52.426;9.424;2023-02-16T03:04:24;101811.81;;;1.75;93.58
8653;BME280;4364;52.426;9.424;2023-02-16T03:06:54;101809.59;;;1.79;94.29
8653;BME280;4364;52.426;9.424;2023-02-16T03:09:22;101813.53;;;1.83;94.00
8653;BME280;4364;52.426;9.424;2023-02-16T03:11:51;101804.59;;;1.76;93.54
8653;BME280;4364;52.426;9.424;2023-02-16T03:14:47;101810.84;;;1.61;93.66
8653;BME280;4364;52.426;9.424;2023-02-16T03:17:20;101798.19;;;1.55;93.66
8653;BME280;4364;52.426;9.424;2023-02-16T03:20:07;101801.34;;;1.59;94.26
8653;BME280;4364;52.426;9.424;2023-02-16T03:22:56;101803.69;;;1.69;94.96
8653;BME280;4364;52.426;9.424;2023-02-16T03:25:42;101816.09;;;1.70;94.20
8653;BME280;4364;52.426;9.424;2023-02-16T03:28:29;101817.84;;;1.77;95.13
8653;BME280;4364;52.426;9.424;2023-02-16T03:31:19;101812.34;;;1.85;95.52
8653;BME280;4364;52.426;9.424;2023-02-16T03:33:48;101797.88;;;1.87;95.53
8653;BME280;4364;52.426;9.424;2023-02-16T03:36:22;101797.75;;;1.95;95.46
8653;BME280;4364;52.426;9.424;2023-02-16T03:38:49;101804.25;;;2.07;95.50
8653;BME280;4364;52.426;9.424;2023-02-16T03:41:16;101802.97;;;2.25;94.82
8653;BME280;4364;52.426;9.424;2023-02-16T03:43:43;101800.16;;;2.33;94.04
8653;BME280;4364;52.426;9.424;2023-02-16T03:46:09;101800.16;;;2.33;94.21
8653;BME280;4364;52.426;9.424;2023-02-16T03:48:36;101804.53;;;2.40;94.34
8653;BME280;4364;52.426;9.424;2023-02-16T03:51:02;101798.97;;;2.42;93.53
8653;BME280;4364;52.426;9.424;2023-02-16T03:53:29;101795.88;;;2.45;93.17
8653;BME280;4364;52.426;9.424;2023-02-16T03:55:56;101786.19;;;2.44;93.34
8653;BME280;4364;52.426;9.424;2023-02-16T03:58:23;101788.47;;;2.47;92.93
8653;BME280;4364;52.426;9.424;2023-02-16T04:00:51;101786.47;;;2.56;92.68
8653;BME280;4364;52.426;9.424;2023-02-16T04:03:17;101791.03;;;2.62;92.24
8653;BME280;4364;52.426;9.424;2023-02-16T04:05:44;101788.13;;;2.57;91.86
8653;BME280;4364;52.426;9.424;2023-02-16T04:08:11;101787.06;;;2.51;92.07
8653;BME280;4364;52.426;9.424;2023-02-16T04:10:38;101790.31;;;2.47;92.35
8653;BME280;4364;52.426;9.424;2023-02-16T04:13:04;101784.06;;;2.68;92.13
8653;BME280;4364;52.426;9.424;2023-02-16T04:15:31;101781.19;;;2.69;91.41
8653;BME280;4364;52.426;9.424;2023-02-16T04:17:58;101783.84;;;2.63;91.47
8653;BME280;4364;52.426;9.424;2023-02-16T04:20:29;101778.25;;;2.64;91.58
8653;BME280;4364;52.426;9.424;2023-02-16T04:22:56;101772.28;;;2.69;91.25
8653;BME280;4364;52.426;9.424;2023-02-16T04:25:23;101778.34;;;2.77;90.78
8653;BME280;4364;52.426;9.424;2023-02-16T04:27:50;101767.16;;;2.81;90.28
8653;BME280;4364;52.426;9.424;2023-02-16T04:30:19;101766.19;;;2.88;90.13
8653;BME280;4364;52.426;9.424;2023-02-16T04:32:46;101760.34;;;2.78;90.43
8653;BME280;4364;52.426;9.424;2023-02-16T04:35:14;101755.22;;;2.83;90.03
8653;BME280;4364;52.426;9.424;2023-02-16T04:37:40;101767.81;;;2.83;90.31
8653;BME280;4364;52.426;9.424;2023-02-16T04:40:08;101763.63;;;2.73;90.59
8653;BME280;4364;52.426;9.424;2023-02-16T04:42:36;101754.38;;;2.76;90.66
8653;BME280;4364;52.426;9.424;2023-02-16T04:45:02;101754.94;;;2.71;91.27
8653;BME280;4364;52.426;9.424;2023-02-16T04:47:29;101752.94;;;2.87;90.39
8653;BME280;4364;52.426;9.424;2023-02-16T04:49:55;101749.66;;;2.91;90.18
8653;BME280;4364;52.426;9.424;2023-02-16T04:52:22;101751.50;;;2.84;90.04
8653;BME280;4364;52.426;9.424;2023-02-16T04:54:48;101757.50;;;2.86;90.12
8653;BME280;4364;52.426;9.424;2023-02-16T04:57:15;101763.69;;;2.87;90.38
8653;BME280;4364;52.426;9.424;2023-02-16T04:59:42;101761.59;;;2.82;90.07
8653;BME280;4364;52.426;9.424;2023-02-16T05:02:09;101768.94;;;3.02;89.20
8653;BME280;4364;52.426;9.424;2023-02-16T05:04:35;101756.91;;;2.91;89.13
8653;BME280;4364;52.426;9.424;2023-02-16T05:07:02;101762.25;;;2.84;89.11
8653;BME280;4364;52.426;9.424;2023-02-16T05:09:28;101767.00;;;2.89;89.58
8653;BME280;4364;52.426;9.424;2023-02-16T05:11:55;101760.97;;;2.80;89.75
8653;BME280;4364;52.426;9.424;2023-02-16T05:14:40;101765.31;;;2.74;89.89
8653;BME280;4364;52.426;9.424;2023-02-16T05:19:37;101756.25;;;2.89;89.25
8653;BME280;4364;52.426;9.424;2023-02-16T05:22:04;101756.22;;;2.82;89.69
8653;BME280;4364;52.426;9.424;2023-02-16T05:24:31;101759.09;;;2.81;89.85
8653;BME280;4364;52.426;9.424;2023-02-16T05:26:57;101762.03;;;2.79;89.98
8653;BME280;4364;52.426;9.424;2023-02-16T05:29:24;101765.75;;;2.85;90.06
8653;BME280;4364;52.426;9.424;2023-02-16T05:31:50;101767.81;;;2.83;90.10
8653;BME280;4364;52.426;9.424;2023-02-16T05:34:17;101777.34;;;2.92;89.21
8653;BME280;4364;52.426;9.424;2023-02-16T05:36:43;101773.00;;;2.84;89.48
8653;BME280;4364;52.426;9.424;2023-02-16T05:39:10;101768.91;;;2.95;89.33
8653;BME280;4364;52.426;9.424;2023-02-16T05:41:37;101770.94;;;2.86;89.60
8653;BME280;4364;52.426;9.424;2023-02-16T05:44:05;101773.47;;;2.94;89.52
8653;BME280;4364;52.426;9.424;2023-02-16T05:46:33;101769.69;;;2.89;89.14
8653;BME280;4364;52.426;9.424;2023-02-16T05:49:00;101779.28;;;3.05;88.79
8653;BME280;4364;52.426;9.424;2023-02-16T05:51:27;101772.00;;;2.92;88.70
8653;BME280;4364;52.426;9.424;2023-02-16T05:53:54;101774.47;;;2.93;88.80
8653;BME280;4364;52.426;9.424;2023-02-16T05:56:21;101771.53;;;2.82;89.49
8653;BME280;4364;52.426;9.424;2023-02-16T05:58:48;101774.59;;;2.78;89.26
8653;BME280;4364;52.426;9.424;2023-02-16T06:01:15;101778.78;;;2.81;89.28
8653;BME280;4364;52.426;9.424;2023-02-16T06:03:43;101770.50;;;2.83;88.88
8653;BME280;4364;52.426;9.424;2023-02-16T06:06:10;101775.63;;;2.71;90.00
8653;BME280;4364;52.426;9.424;2023-02-16T06:08:37;101778.94;;;2.73;89.77
8653;BME280;4364;52.426;9.424;2023-02-16T06:11:07;101769.59;;;2.69;90.12
8653;BME280;4364;52.426;9.424;2023-02-16T06:13:54;101778.63;;;2.54;90.16
8653;BME280;4364;52.426;9.424;2023-02-16T06:16:27;101779.88;;;2.58;90.40
8653;BME280;4364;52.426;9.424;2023-02-16T06:18:54;101778.88;;;2.66;89.91
8653;BME280;4364;52.426;9.424;2023-02-16T06:21:21;101785.28;;;2.65;90.04
8653;BME280;4364;52.426;9.424;2023-02-16T06:23:48;101787.75;;;2.67;90.04
8653;BME280;4364;52.426;9.424;2023-02-16T06:26:15;101786.50;;;2.63;90.10
8653;BME280;4364;52.426;9.424;2023-02-16T06:28:42;101789.78;;;2.58;90.15
8653;BME280;4364;52.426;9.424;2023-02-16T06:31:08;101775.81;;;2.69;89.75
8653;BME280;4364;52.426;9.424;2023-02-16T06:33:35;101780.78;;;2.72;89.16
8653;BME280;4364;52.426;9.424;2023-02-16T06:36:02;101784.09;;;2.74;89.40
8653;BME280;4364;52.426;9.424;2023-02-16T06:38:29;101783.47;;;2.72;89.14
8653;BME280;4364;52.426;9.424;2023-02-16T06:40:55;101778.16;;;2.79;88.73
8653;BME280;4364;52.426;9.424;2023-02-16T06:43:22;101785.31;;;2.72;88.71
8653;BME280;4364;52.426;9.424;2023-02-16T06:45:48;101789.63;;;2.66;89.23
8653;BME280;4364;52.426;9.424;2023-02-16T06:48:15;101788.16;;;2.64;89.32
8653;BME280;4364;52.426;9.424;2023-02-16T06:50:41;101784.47;;;2.65;89.38
8653;BME280;4364;52.426;9.424;2023-02-16T06:53:08;101784.47;;;2.65;89.47
8653;BME280;4364;52.426;9.424;2023-02-16T06:55:34;101785.09;;;2.67;89.66
8653;BME280;4364;52.426;9.424;2023-02-16T06:58:05;101784.47;;;2.65;89.45
8653;BME280;4364;52.426;9.424;2023-02-16T07:00:33;101787.97;;;2.65;89.58
8653;BME280;4364;52.426;9.424;2023-02-16T07:02:59;101799.31;;;2.67;89.80
8653;BME280;4364;52.426;9.424;2023-02-16T07:05:26;101802.78;;;2.89;88.63
8653;BME280;4364;52.426;9.424;2023-02-16T07:07:53;101800.09;;;2.89;88.53
8653;BME280;4364;52.426;9.424;2023-02-16T07:10:20;101792.59;;;2.78;88.57
8653;BME280;4364;52.426;9.424;2023-02-16T07:12:47;101782.84;;;2.77;89.31
8653;BME280;4364;52.426;9.424;2023-02-16T07:15:14;101789.31;;;2.83;89.02
8653;BME280;4364;52.426;9.424;2023-02-16T07:17:41;101793.09;;;2.95;88.48
8653;BME280;4364;52.426;9.424;2023-02-16T07:20:07;101787.75;;;3.02;87.60
8653;BME280;4364;52.426;9.424;2023-02-16T07:22:34;101789.63;;;3.01;87.36
8653;BME280;4364;52.426;9.424;2023-02-16T07:25:00;101793.53;;;3.05;87.12
8653;BME280;4364;52.426;9.424;2023-02-16T07:27:27;101792.34;;;3.08;86.94
8653;BME280;4364;52.426;9.424;2023-02-16T07:29:53;101798.97;;;3.19;87.43
8653;BME280;4364;52.426;9.424;2023-02-16T07:32:20;101799.19;;;3.24;86.63
8653;BME280;4364;52.426;9.424;2023-02-16T07:34:47;101792.19;;;3.23;86.44
8653;BME280;4364;52.426;9.424;2023-02-16T07:37:14;101790.59;;;3.42;85.71
8653;BME280;4364;52.426;9.424;2023-02-16T07:39:41;101788.91;;;3.41;85.64
8653;BME280;4364;52.426;9.424;2023-02-16T07:42:07;101797.44;;;3.44;85.72
8653;BME280;4364;52.426;9.424;2023-02-16T07:44:34;101791.41;;;3.49;85.69
8653;BME280;4364;52.426;9.424;2023-02-16T07:47:00;101794.34;;;3.61;85.04
8653;BME280;4364;52.426;9.424;2023-02-16T07:49:26;101788.78;;;3.69;84.27
8653;BME280;4364;52.426;9.424;2023-02-16T07:51:53;101801.44;;;3.82;83.44
8653;BME280;4364;52.426;9.424;2023-02-16T07:54:19;101802.25;;;3.96;82.47
8653;BME280;4364;52.426;9.424;2023-02-16T07:56:46;101809.31;;;4.03;81.91
8653;BME280;4364;52.426;9.424;2023-02-16T07:59:14;101803.72;;;4.18;81.48
8653;BME280;4364;52.426;9.424;2023-02-16T08:01:40;101800.03;;;4.26;81.01
8653;BME280;4364;52.426;9.424;2023-02-16T08:04:07;101794.19;;;4.16;81.71
8653;BME280;4364;52.426;9.424;2023-02-16T08:06:34;101801.03;;;4.32;81.02
8653;BME280;4364;52.426;9.424;2023-02-16T08:09:01;101801.25;;;4.30;80.88
8653;BME280;4364;52.426;9.424;2023-02-16T08:11:27;101802.25;;;4.42;80.38
8653;BME280;4364;52.426;9.424;2023-02-16T08:13:53;101796.88;;;4.49;80.32
8653;BME280;4364;52.426;9.424;2023-02-16T08:16:25;101802.47;;;4.48;80.37
8653;BME280;4364;52.426;9.424;2023-02-16T08:18:54;101796.66;;;4.57;79.67
8653;BME280;4364;52.426;9.424;2023-02-16T08:21:23;101794.78;;;4.71;79.49
8653;BME280;4364;52.426;9.424;2023-02-16T08:24:11;101794.34;;;4.74;79.67
8653;BME280;4364;52.426;9.424;2023-02-16T08:26:39;101771.34;;;4.72;79.39
8653;BME280;4364;52.426;9.424;2023-02-16T08:29:08;101779.59;;;4.83;79.09
8653;BME280;4364;52.426;9.424;2023-02-16T08:31:35;101786.44;;;4.86;79.12
8653;BME280;4364;52.426;9.424;2023-02-16T08:34:04;101783.72;;;4.93;78.70
8653;BME280;4364;52.426;9.424;2023-02-16T08:36:33;101781.81;;;5.00;78.58
8653;BME280;4364;52.426;9.424;2023-02-16T08:39:04;101775.81;;;4.98;78.76
8653;BME280;4364;52.426;9.424;2023-02-16T08:41:33;101777.22;;;5.07;78.61
8653;BME280;4364;52.426;9.424;2023-02-16T08:44:01;101762.72;;;5.08;77.89
8653;BME280;4364;52.426;9.424;2023-02-16T08:46:29;101756.09;;;5.04;78.62
8653;BME280;4364;52.426;9.424;2023-02-16T08:48:56;101773.25;;;5.16;77.63
8653;BME280;4364;52.426;9.424;2023-02-16T08:51:27;101779.50;;;5.10;77.52
8653;BME280;4364;52.426;9.424;2023-02-16T08:53:54;101781.31;;;5.23;77.40
8653;BME280;4364;52.426;9.424;2023-02-16T08:56:22;101787.09;;;5.27;76.17
8653;BME280;4364;52.426;9.424;2023-02-16T08:58:48;101775.91;;;5.30;76.34
8653;BME280;4364;52.426;9.424;2023-02-16T09:01:15;101791.69;;;5.26;76.44
8653;BME280;4364;52.426;9.424;2023-02-16T09:03:43;101783.75;;;5.38;75.69
8653;BME280;4364;52.426;9.424;2023-02-16T09:06:12;101771.88;;;5.39;75.55
8653;BME280;4364;52.426;9.424;2023-02-16T09:08:40;101786.16;;;5.46;75.47
8653;BME280;4364;52.426;9.424;2023-02-16T09:11:11;101783.75;;;5.38;75.52
8653;BME280;4364;52.426;9.424;2023-02-16T09:13:38;101785.38;;;5.39;75.34
8653;BME280;4364;52.426;9.424;2023-02-16T09:16:12;101774.13;;;5.49;75.69
8653;BME280;4364;52.426;9.424;2023-02-16T09:18:38;101770.19;;;5.51;75.23
8653;BME280;4364;52.426;9.424;2023-02-16T09:21:09;101779.06;;;5.59;75.38
8653;BME280;4364;52.426;9.424;2023-02-16T09:23:37;101788.75;;;5.66;74.70
8653;BME280;4364;52.426;9.424;2023-02-16T09:26:04;101786.50;;;5.63;74.95
8653;BME280;4364;52.426;9.424;2023-02-16T09:28:36;101799.09;;;5.69;74.84
8653;BME280;4364;52.426;9.424;2023-02-16T09:31:15;101788.59;;;5.86;74.24
8653;BME280;4364;52.426;9.424;2023-02-16T09:33:42;101792.81;;;5.82;74.82
8653;BME280;4364;52.426;9.424;2023-02-16T09:36:10;101785.91;;;5.86;74.44
8653;BME280;4364;52.426;9.424;2023-02-16T09:38:38;101787.31;;;5.96;74.28
8653;BME280;4364;52.426;9.424;2023-02-16T09:46:41;101792.47;;;6.04;73.94
8653;BME280;4364;52.426;9.424;2023-02-16T09:49:22;101798.53;;;5.92;73.82
8653;BME280;4364;52.426;9.424;2023-02-16T09:51:58;101797.09;;;5.97;74.24
8653;BME280;4364;52.426;9.424;2023-02-16T09:54:34;101797.69;;;5.99;73.52
8653;BME280;4364;52.426;9.424;2023-02-16T10:02:56;101784.97;;;6.06;74.78
8653;BME280;4364;52.426;9.424;2023-02-16T10:05:42;101780.47;;;5.93;75.18
8653;BME280;4364;52.426;9.424;2023-02-16T10:08:20;101791.44;;;6.05;74.73
8653;BME280;4364;52.426;9.424;2023-02-16T10:11:02;101783.72;;;6.08;74.66
8653;BME280;4364;52.426;9.424;2023-02-16T10:13:55;101789.88;;;6.16;74.41
8653;BME280;4364;52.426;9.424;2023-02-16T10:16:28;101789.59;;;6.24;74.17
8653;BME280;4364;52.426;9.424;2023-02-16T10:18:57;101791.28;;;6.25;74.04
8653;BME280;4364;52.426;9.424;2023-02-16T10:21:27;101804.25;;;6.35;73.76
8653;BME280;4364;52.426;9.424;2023-02-16T10:24:02;101799.84;;;6.40;73.01
8653;BME280;4364;52.426;9.424;2023-02-16T10:26:45;101805.63;;;6.44;72.86
8653;BME280;4364;52.426;9.424;2023-02-16T10:29:15;101799.38;;;6.68;71.91
8653;BME280;4364;52.426;9.424;2023-02-16T10:32:05;101808.75;;;6.66;72.52
8653;BME280;4364;52.426;9.424;2023-02-16T10:37:38;101786.81;;;6.74;72.28
8653;BME280;4364;52.426;9.424;2023-02-16T10:40:26;101797.56;;;6.81;72.62
8653;BME280;4364;52.426;9.424;2023-02-16T10:43:03;101794.56;;;6.89;72.32
8653;BME280;4364;52.426;9.424;2023-02-16T10:45:48;101794.28;;;6.97;71.90
8653;BME280;4364;52.426;9.424;2023-02-16T10:48:19;101793.88;;;7.12;71.87
8653;BME280;4364;52.426;9.424;2023-02-16T10:55:58;101795.44;;;7.20;71.49
8653;BME280;4364;52.426;9.424;2023-02-16T10:58:38;101793.78;;;7.37;70.57
8653;BME280;4364;52.426;9.424;2023-02-16T11:01:35;101794.75;;;7.24;71.36
8653;BME280;4364;52.426;9.424;2023-02-16T11:04:04;101798.50;;;7.42;71.14
8653;BME280;4364;52.426;9.424;2023-02-16T11:06:31;101790.16;;;7.44;71.68
8653;BME280;4364;52.426;9.424;2023-02-16T11:09:02;101789.44;;;7.48;71.63
8653;BME280;4364;52.426;9.424;2023-02-16T11:11:35;101787.63;;;7.60;71.48
8653;BME280;4364;52.426;9.424;2023-02-16T11:14:04;101783.97;;;7.67;70.92
8653;BME280;4364;52.426;9.424;2023-02-16T11:16:34;101790.59;;;7.71;71.50
8653;BME280;4364;52.426;9.424;2023-02-16T11:19:05;101788.59;;;7.78;71.15
8653;BME280;4364;52.426;9.424;2023-02-16T11:21:48;101788.63;;;7.90;71.04
8653;BME280;4364;52.426;9.424;2023-02-16T11:24:27;101794.06;;;7.90;71.72
8653;BME280;4364;52.426;9.424;2023-02-16T11:29:29;101780.75;;;8.00;70.78
8653;BME280;4364;52.426;9.424;2023-02-16T11:31:56;101769.47;;;8.03;70.84
8653;BME280;4364;52.426;9.424;2023-02-16T11:34:34;101780.41;;;8.08;70.58
8653;BME280;4364;52.426;9.424;2023-02-16T11:37:24;101764.16;;;8.08;69.83
8653;BME280;4364;52.426;9.424;2023-02-16T11:40:00;101765.81;;;8.09;69.89
8653;BME280;4364;52.426;9.424;2023-02-16T11:42:31;101759.25;;;8.29;69.25
8653;BME280;4364;52.426;9.424;2023-02-16T11:45:01;101756.88;;;8.21;69.32
8653;BME280;4364;52.426;9.424;2023-02-16T11:47:34;101751.72;;;8.19;68.84
8653;BME280;4364;52.426;9.424;2023-02-16T11:50:19;101757.72;;;8.21;69.09
8653;BME280;4364;52.426;9.424;2023-02-16T11:52:49;101764.22;;;8.32;68.55
8653;BME280;4364;52.426;9.424;2023-02-16T11:55:28;101765.72;;;8.40;67.93
8653;BME280;4364;52.426;9.424;2023-02-16T11:58:18;101752.53;;;8.43;68.07
8653;BME280;4364;52.426;9.424;2023-02-16T12:09:46;101752.81;;;8.94;66.92
8653;BME280;4364;52.426;9.424;2023-02-16T12:12:30;101755.41;;;9.01;66.46
8653;BME280;4364;52.426;9.424;2023-02-16T12:23:27;101736.28;;;9.36;65.66
8653;BME280;4364;52.426;9.424;2023-02-16T12:26:11;101730.34;;;9.39;65.04
8653;BME280;4364;52.426;9.424;2023-02-16T12:29:01;101741.94;;;9.35;64.67
8653;BME280;4364;52.426;9.424;2023-02-16T12:37:03;101733.69;;;9.30;64.81
8653;BME280;4364;52.426;9.424;2023-02-16T12:39:50;101734.41;;;9.25;64.96
8653;BME280;4364;52.426;9.424;2023-02-16T12:42:30;101725.19;;;9.09;65.58
8653;BME280;4364;52.426;9.424;2023-02-16T12:45:07;101729.28;;;9.12;65.42
8653;BME280;4364;52.426;9.424;2023-02-16T12:47:39;101733.31;;;9.09;65.14
8653;BME280;4364;52.426;9.424;2023-02-16T12:50:20;101727.50;;;9.17;65.47
8653;BME280;4364;52.426;9.424;2023-02-16T12:52:56;101720.56;;;9.09;65.43
8653;BME280;4364;52.426;9.424;2023-02-16T12:55:43;101725.19;;;9.09;66.31
8653;BME280;4364;52.426;9.424;2023-02-16T12:58:23;101724.41;;;9.25;66.29
8653;BME280;4364;52.426;9.424;2023-02-16T13:01:03;101718.84;;;9.32;66.17
8653;BME280;4364;52.426;9.424;2023-02-16T13:03:41;101719.00;;;9.42;65.65
8653;BME280;4364;52.426;9.424;2023-02-16T13:06:23;101720.31;;;9.40;65.48
8653;BME280;4364;52.426;9.424;2023-02-16T13:11:55;101718.16;;;9.42;65.65
8653;BME280;4364;52.426;9.424;2023-02-16T13:14:34;101712.34;;;9.50;65.23
8653;BME280;4364;52.426;9.424;2023-02-16T13:17:10;101712.34;;;9.50;64.92
8653;BME280;4364;52.426;9.424;2023-02-16T13:19:37;101706.28;;;9.60;64.13
8653;BME280;4364;52.426;9.424;2023-02-16T13:22:22;101694.59;;;9.59;64.34
8653;BME280;4364;52.426;9.424;2023-02-16T13:30:44;101679.84;;;9.38;66.04
8653;BME280;4364;52.426;9.424;2023-02-16T13:44:15;101670.00;;;9.20;65.83
8653;BME280;4364;52.426;9.424;2023-02-16T13:46:45;101670.44;;;9.12;66.62
8653;BME280;4364;52.426;9.424;2023-02-16T13:49:37;101662.84;;;8.97;67.04
8653;BME280;4364;52.426;9.424;2023-02-16T13:52:37;101653.06;;;9.13;67.02
8653;BME280;4364;52.426;9.424;2023-02-16T13:55:20;101650.75;;;9.05;66.86
8653;BME280;4364;52.426;9.424;2023-02-16T14:00:35;101642.38;;;9.06;66.95
8653;BME280;4364;52.426;9.424;2023-02-16T14:05:43;101640.19;;;8.92;68.20
8653;BME280;4364;52.426;9.424;2023-02-16T14:08:25;101641.13;;;8.97;68.12
8653;BME280;4364;52.426;9.424;2023-02-16T14:10:58;101633.00;;;8.97;67.89
8653;BME280;4364;52.426;9.424;2023-02-16T14:21:18;101612.88;;;8.81;69.12
8653;BME280;4364;52.426;9.424;2023-02-16T14:23:55;101607.22;;;8.83;69.38
8653;BME280;4364;52.426;9.424;2023-02-16T14:26:22;101604.50;;;8.83;68.97
8653;BME280;4364;52.426;9.424;2023-02-16T14:29:01;101611.22;;;8.80;69.49
8653;BME280;4364;52.426;9.424;2023-02-16T14:31:40;101614.00;;;8.68;70.12
8653;BME280;4364;52.426;9.424;2023-02-16T14:34:17;101616.16;;;8.83;69.96
8653;BME280;4364;52.426;9.424;2023-02-16T14:39:37;101613.88;;;8.63;71.06
8653;BME280;4364;52.426;9.424;2023-02-16T14:42:31;101624.50;;;8.65;70.95
8653;BME280;4364;52.426;9.424;2023-02-16T14:56:57;101631.06;;;8.16;74.43
8653;BME280;4364;52.426;9.424;2023-02-16T14:59:49;101621.78;;;8.12;75.41
8653;BME280;4364;52.426;9.424;2023-02-16T15:05:24;101633.91;;;8.10;75.55
8653;BME280;4364;52.426;9.424;2023-02-16T15:07:58;101634.72;;;8.22;75.10
8653;BME280;4364;52.426;9.424;2023-02-16T15:10:29;101627.91;;;8.08;76.25
8653;BME280;4364;52.426;9.424;2023-02-16T15:12:56;101626.13;;;8.13;75.89
8653;BME280;4364;52.426;9.424;2023-02-16T15:15:49;101630.25;;;8.16;75.99
8653;BME280;4364;52.426;9.424;2023-02-16T15:18:20;101628.72;;;8.08;76.22
8653;BME280;4364;52.426;9.424;2023-02-16T15:20:50;101634.13;;;8.08;76.53
8653;BME280;4364;52.426;9.424;2023-02-16T15:23:23;101638.50;;;8.09;76.71
8653;BME280;4364;52.426;9.424;2023-02-16T15:25:57;101630.38;;;8.09;76.48
8653;BME280;4364;52.426;9.424;2023-02-16T15:28:31;101627.88;;;8.20;76.18
8653;BME280;4364;52.426;9.424;2023-02-16T15:31:02;101626.69;;;8.27;76.28
8653;BME280;4364;52.426;9.424;2023-02-16T15:33:39;101623.28;;;8.20;76.28
8653;BME280;4364;52.426;9.424;2023-02-16T15:36:09;101616.47;;;8.18;76.82
8653;BME280;4364;52.426;9.424;2023-02-16T15:38:41;101616.69;;;8.16;77.23
8653;BME280;4364;52.426;9.424;2023-02-16T15:41:13;101627.06;;;8.19;76.92
8653;BME280;4364;52.426;9.424;2023-02-16T15:43:49;101620.22;;;8.16;77.20
8653;BME280;4364;52.426;9.424;2023-02-16T15:46:32;101616.94;;;8.14;77.64
8653;BME280;4364;52.426;9.424;2023-02-16T15:49:25;101612.34;;;8.15;77.73